Perrysburg, Ohio
Current Conditions -  °F | °C
As of 3:53 PM on Tuesday 25 Nov 2014 (Local Time) from KTDZ Reporting Station
Overcast Overcast  
Wind Chill: 24°   Ceiling: 3500
Heat Index: 32°   Visibility: 10mi
Dew Point: 21°   Wind: 9mph
Humidity: 64%   Direction: 260°W
Pressure: 30.13"   Gusts: NA
Location:  41.56°N, 83.63°W
Report Text: KTDZ 252053Z AUTO 26008KT 10SM SCT030 OVC035 00/M06 A3013 RMK AO2 SLP208 T00001061 53024 TSNO $
Loading
Personal Weather Stations






























Interactive Weather Map New forecast layout! Learn more

10-Day Weather Forecast

Advertisements
Track Severe Weather on mobile